Time;durP1;ratioP1;P1;durP2;ratioP2;P2;SDS_P1;SDS_P2;PMS_P1;PMS_P2;Temp;Humidity;BMP_temperature;BMP_pressure;BME280_temperature;BME280_humidity;BME280_pressure;Samples;Min_cycle;Max_cycle;Signal;HPM_P1;HPM_P2
2022/07/21 00:00:27;;;;;;;3.80;3.50;;;;;;;17.94;65.61;97152.75;5010470;28;20065;-61
2022/07/21 00:02:55;;;;;;;4.78;3.60;;;;;;;17.73;66.06;97130.50;5015844;28;20153;-68
2022/07/21 00:05:23;;;;;;;6.05;4.43;;;;;;;17.81;66.04;97157.25;5009271;28;20065;-62
2022/07/21 00:07:51;;;;;;;4.50;3.45;;;;;;;17.22;66.63;97066.94;5009757;28;20050;-68
2022/07/21 00:10:20;;;;;;;5.20;3.35;;;;;;;17.59;67.20;97142.63;5009095;28;20054;-72
2022/07/21 00:12:46;;;;;;;4.20;3.90;;;;;;;17.68;66.97;97142.16;5010044;28;20498;-67
2022/07/21 00:15:15;;;;;;;6.45;3.75;;;;;;;17.64;67.58;97145.00;5008348;28;20045;-61
2022/07/21 00:17:42;;;;;;;4.63;3.88;;;;;;;17.69;67.09;97146.53;5005815;28;20559;-61
2022/07/21 00:20:10;;;;;;;5.68;3.92;;;;;;;17.59;67.25;97147.47;5008066;28;20053;-61
2022/07/21 00:22:38;;;;;;;4.45;4.13;;;;;;;17.47;67.53;97128.34;5007059;28;20049;-67
2022/07/21 00:25:05;;;;;;;5.05;3.78;;;;;;;17.58;67.28;97145.84;5008262;28;20575;-62
2022/07/21 00:27:33;;;;;;;5.25;3.80;;;;;;;17.48;68.01;97143.94;5008485;28;20418;-66
2022/07/21 00:30:00;;;;;;;3.55;3.30;;;;;;;17.15;68.47;97116.59;5005913;28;20054;-64
2022/07/21 00:32:27;;;;;;;3.75;3.40;;;;;;;16.83;68.87;97088.03;5009024;28;20049;-70
2022/07/21 00:35:02;;;;;;;3.85;3.55;;;;;;;17.31;68.79;97139.25;5006815;28;20050;-70
2022/07/21 00:37:29;;;;;;;5.22;4.15;;;;;;;17.06;68.82;97114.25;5011458;28;20133;-65
2022/07/21 00:39:56;;;;;;;5.25;4.15;;;;;;;17.32;68.53;97133.25;5006620;28;20064;-67
2022/07/21 00:42:25;;;;;;;4.82;3.65;;;;;;;17.25;68.97;97143.69;5006747;28;20057;-60
2022/07/21 00:44:52;;;;;;;3.88;3.47;;;;;;;17.13;69.73;97135.78;5006570;28;20053;-60
2022/07/21 00:47:26;;;;;;;3.95;3.55;;;;;;;17.21;69.37;97131.72;5011728;28;20065;-69
2022/07/21 00:49:55;;;;;;;4.00;3.70;;;;;;;16.31;69.24;96998.41;5007368;28;20057;-63
2022/07/21 00:52:21;;;;;;;4.00;3.40;;;;;;;17.26;69.52;97132.06;5009322;28;20053;-67
2022/07/21 00:54:48;;;;;;;4.10;3.67;;;;;;;17.31;68.91;97119.66;5006307;28;20054;-60
2022/07/21 00:57:16;;;;;;;5.40;3.95;;;;;;;17.28;68.67;97126.06;5011754;28;20821;-61
2022/07/21 00:59:44;;;;;;;4.07;3.75;;;;;;;17.28;68.71;97128.88;5004887;28;20061;-62
2022/07/21 01:02:13;;;;;;;3.70;3.40;;;;;;;16.85;69.32;97074.44;5009717;28;20076;-70
2022/07/21 01:04:40;;;;;;;3.50;3.28;;;;;;;17.02;68.91;97090.28;5006408;28;20050;-69
2022/07/21 01:07:07;;;;;;;3.80;3.50;;;;;;;17.19;69.21;97128.53;5011318;28;20440;-69
2022/07/21 01:09:35;;;;;;;4.40;3.85;;;;;;;17.15;69.19;97116.59;5006221;28;20415;-62
2022/07/21 01:12:03;;;;;;;4.25;3.50;;;;;;;17.06;69.81;97119.03;5010609;28;20514;-70
2022/07/21 01:14:30;;;;;;;4.80;4.40;;;;;;;16.94;69.71;97094.34;5006247;28;20058;-67
2022/07/21 01:16:56;;;;;;;5.88;3.60;;;;;;;16.82;69.69;97080.84;5011523;28;20049;-68
2022/07/21 01:19:23;;;;;;;4.03;3.72;;;;;;;16.90;70.18;97111.16;5005846;28;20527;-58
2022/07/21 01:21:52;;;;;;;7.97;5.80;;;;;;;16.86;70.56;97109.59;5010733;28;20058;-60
2022/07/21 01:24:19;;;;;;;5.10;4.55;;;;;;;16.84;70.89;97123.19;5005690;28;20433;-67
2022/07/21 01:26:48;;;;;;;3.85;3.53;;;;;;;16.80;70.61;97111.22;5010555;28;20050;-60
2022/07/21 01:29:16;;;;;;;3.67;3.38;;;;;;;16.76;70.93;97105.66;5006119;28;20073;-67
2022/07/21 01:31:45;;;;;;;4.10;3.70;;;;;;;16.72;71.49;97098.50;5010578;28;20053;-60
2022/07/21 01:34:12;;;;;;;3.80;3.50;;;;;;;16.64;71.59;97109.69;5005696;28;20058;-66
2022/07/21 01:36:40;;;;;;;5.63;3.70;;;;;;;16.60;71.92;97108.94;5010488;28;20502;-60
2022/07/21 01:41:52;;;;;;;4.55;3.53;;;;;;;16.52;72.53;97098.19;5010122;28;20061;-68
2022/07/21 01:44:20;;;;;;;6.10;3.55;;;;;;;16.63;71.80;97102.53;5005684;28;20088;-61
2022/07/21 01:46:49;;;;;;;5.00;3.92;;;;;;;15.98;72.07;97015.75;5010532;28;20050;-67
2022/07/21 01:49:18;;;;;;;5.20;3.60;;;;;;;16.60;71.92;97100.56;5005391;28;20061;-61
2022/07/21 01:51:45;;;;;;;3.97;3.30;;;;;;;16.42;72.43;97076.66;5012029;28;20060;-67
2022/07/21 01:54:14;;;;;;;7.47;3.95;;;;;;;16.55;72.47;97095.38;5005464;28;20045;-59
2022/07/21 01:56:49;;;;;;;6.18;3.80;;;;;;;16.51;72.68;97100.22;5010516;28;20049;-68
2022/07/21 01:59:15;;;;;;;6.10;3.88;;;;;;;16.54;72.68;97093.78;5005180;28;20057;-60
2022/07/21 02:01:42;;;;;;;4.43;3.60;;;;;;;16.59;72.42;97090.56;5010861;28;20496;-61
2022/07/21 02:04:09;;;;;;;6.90;3.60;;;;;;;16.17;72.18;97026.44;5005560;28;20085;-60
2022/07/21 02:06:36;;;;;;;4.18;3.78;;;;;;;16.53;71.90;97069.81;5014258;28;20058;-60
2022/07/21 02:09:02;;;;;;;3.42;3.13;;;;;;;16.27;72.20;97034.00;5006680;28;20513;-67
2022/07/21 02:11:29;;;;;;;5.75;3.67;;;;;;;16.63;72.22;97078.56;5010790;28;20068;-67
2022/07/21 02:13:56;;;;;;;4.75;3.72;;;;;;;16.63;72.30;97081.38;5005092;28;20054;-66
2022/07/21 02:16:24;;;;;;;4.43;4.13;;;;;;;16.75;71.62;97078.09;5011164;28;20085;-67
2022/07/21 02:18:50;;;;;;;7.05;4.13;;;;;;;16.77;71.67;97078.47;5004901;28;20053;-67
2022/07/21 02:21:18;;;;;;;3.97;3.67;;;;;;;16.15;71.33;96975.78;5011876;28;20064;-59
2022/07/21 02:23:46;;;;;;;4.18;3.80;;;;;;;16.79;71.20;97070.47;5008862;28;20060;-67
2022/07/21 02:26:12;;;;;;;5.20;3.70;;;;;;;16.84;71.25;97072.81;5010858;28;20050;-68
2022/07/21 02:28:40;;;;;;;4.07;3.75;;;;;;;16.40;70.86;96993.19;5005009;28;20138;-67
2022/07/21 02:31:07;;;;;;;5.35;3.70;;;;;;;16.32;70.94;97002.03;5010655;28;20061;-67
2022/07/21 02:33:34;;;;;;;3.80;3.50;;;;;;;16.74;71.35;97046.50;5003542;28;20064;-60
2022/07/21 02:36:01;;;;;;;4.57;4.07;;;;;;;15.84;71.59;96932.03;5010527;28;20054;-68
2022/07/21 02:38:28;;;;;;;6.72;3.70;;;;;;;16.68;71.71;97069.75;5005164;28;20050;-61
2022/07/21 02:40:55;;;;;;;5.97;3.88;;;;;;;16.41;71.90;97022.72;5010430;28;20274;-59
2022/07/21 02:43:23;;;;;;;4.32;3.80;;;;;;;16.67;72.06;97062.56;5004918;28;20448;-67
2022/07/21 02:45:50;;;;;;;3.92;3.63;;;;;;;15.84;71.52;96929.25;5011482;28;20584;-67
2022/07/21 02:48:17;;;;;;;4.10;3.70;;;;;;;16.63;72.33;97061.78;5009171;28;20050;-67
2022/07/21 02:50:44;;;;;;;3.72;3.42;;;;;;;16.53;72.19;97046.66;5010541;28;20062;-60
2022/07/21 02:53:19;;;;;;;5.38;4.03;;;;;;;16.61;72.08;97054.59;5007480;28;20053;-67
2022/07/21 02:55:51;;;;;;;4.80;4.18;;;;;;;15.89;72.46;96951.16;5013880;28;20053;-60
2022/07/21 02:58:26;;;;;;;6.93;5.07;;;;;;;16.55;72.21;97033.84;5007063;28;20521;-60
2022/07/21 03:00:54;;;;;;;7.78;5.20;;;;;;;16.74;72.11;97115.66;5014519;28;20059;-67
2022/07/21 03:03:24;;;;;;;6.90;5.28;;;;;;;16.81;70.86;97068.03;5008365;28;20141;-61
2022/07/21 03:05:51;;;;;;;5.22;4.53;;;;;;;16.81;70.71;97056.84;5013530;28;20049;-60
2022/07/21 03:08:19;;;;;;;6.70;4.20;;;;;;;16.47;70.97;97009.94;5007144;28;20058;-68
2022/07/21 03:10:46;;;;;;;6.07;4.22;;;;;;;16.83;70.87;97052.47;5014334;28;20063;-60
2022/07/21 03:13:13;;;;;;;5.68;3.72;;;;;;;16.77;71.21;97061.69;5008227;28;20064;-68
2022/07/21 03:15:40;;;;;;;5.10;3.85;;;;;;;16.75;71.70;97052.91;5003640;28;20053;-68
2022/07/21 03:18:07;;;;;;;6.30;3.80;;;;;;;16.74;71.52;97045.72;5019941;28;20050;-60
2022/07/21 03:20:37;;;;;;;6.28;3.95;;;;;;;16.63;72.02;97042.97;5010641;28;20428;-59
2022/07/21 03:23:05;;;;;;;8.38;4.05;;;;;;;16.74;72.10;97059.72;5016411;28;20054;-60
2022/07/21 03:25:31;;;;;;;6.43;3.92;;;;;;;16.73;71.81;97039.31;5009643;28;20104;-68
2022/07/21 03:27:58;;;;;;;3.85;3.40;;;;;;;16.82;71.39;97047.28;5011412;28;20060;-68
2022/07/21 03:30:26;;;;;;;4.32;3.92;;;;;;;16.81;71.25;97048.47;5008634;28;20045;-68
2022/07/21 03:32:53;;;;;;;5.35;3.70;;;;;;;16.83;71.12;97054.44;5014404;28;20050;-68
2022/07/21 03:35:19;;;;;;;6.47;3.72;;;;;;;16.81;70.95;97042.88;5023161;28;20045;-66
2022/07/21 03:37:50;;;;;;;6.45;4.30;;;;;;;17.00;70.82;97045.13;5010889;28;20061;-70
2022/07/21 03:40:22;;;;;;;4.85;3.67;;;;;;;16.97;70.24;97027.16;5009092;28;20057;-68
2022/07/21 03:42:51;;;;;;;5.63;3.88;;;;;;;17.15;69.84;97049.41;5009893;28;20624;-62
2022/07/21 03:45:17;;;;;;;6.88;4.25;;;;;;;17.15;69.87;97033.38;5009764;28;20049;-67
2022/07/21 03:47:44;;;;;;;5.88;3.63;;;;;;;17.24;69.76;97046.91;5009436;28;20111;-69
2022/07/21 03:50:16;;;;;;;5.07;4.03;;;;;;;16.88;69.68;96984.06;5008617;28;20046;-63
2022/07/21 03:52:43;;;;;;;4.30;3.90;;;;;;;17.03;69.38;97007.91;5011904;28;20437;-69
2022/07/21 03:55:14;;;;;;;6.03;3.72;;;;;;;17.42;69.22;97039.16;5008390;28;20060;-68
2022/07/21 03:58:03;;;;;;;5.18;3.90;;;;;;;16.57;68.97;96908.41;5011118;28;20496;-58
2022/07/21 04:00:33;;;;;;;7.90;4.43;;;;;;;17.50;69.23;97038.69;5008628;28;20820;-68
2022/07/21 04:03:01;;;;;;;5.15;4.00;;;;;;;17.59;68.74;97047.38;5010407;28;20077;-67
2022/07/21 04:05:29;;;;;;;4.82;4.38;;;;;;;17.79;68.22;97056.00;5010317;28;20042;-60
2022/07/21 04:07:56;;;;;;;5.20;4.13;;;;;;;17.73;67.77;97040.84;5015774;28;20060;-59
2022/07/21 04:10:26;;;;;;;6.05;4.25;;;;;;;17.82;67.50;97027.13;5009423;28;20057;-60
2022/07/21 04:12:54;;;;;;;5.07;4.57;;;;;;;18.22;66.37;97045.88;5014294;28;20090;-61
2022/07/21 04:15:21;;;;;;;5.40;3.88;;;;;;;18.13;66.87;97030.78;5016657;28;20088;-62
2022/07/21 04:17:48;;;;;;;4.82;3.47;;;;;;;18.28;66.40;97047.00;5009830;28;20072;-60
2022/07/21 04:20:15;;;;;;;5.55;3.90;;;;;;;18.48;65.52;97055.59;5008239;28;20054;-68
2022/07/21 04:22:43;;;;;;;5.65;4.30;;;;;;;18.62;65.32;97041.34;5009619;28;20061;-68
2022/07/21 04:25:12;;;;;;;5.45;4.95;;;;;;;18.87;64.46;97036.16;5006551;28;20041;-69
2022/07/21 04:27:39;;;;;;;5.97;4.00;;;;;;;18.96;63.89;97039.22;5009141;28;20065;-68
2022/07/21 04:30:10;;;;;;;6.30;4.55;;;;;;;19.06;63.80;97033.41;5007802;28;20484;-61
2022/07/21 04:32:37;;;;;;;7.55;4.20;;;;;;;19.18;63.46;97040.44;5008964;28;20516;-61
2022/07/21 04:35:05;;;;;;;4.70;4.25;;;;;;;19.02;62.59;96965.31;5008499;28;20061;-70
2022/07/21 04:37:33;;;;;;;12.25;5.32;;;;;;;19.52;62.51;97027.81;5010637;28;20072;-60
2022/07/21 04:40:00;;;;;;;4.93;4.47;;;;;;;16.48;62.18;96535.41;5007435;28;20081;-66
2022/07/21 04:42:27;;;;;;;7.35;5.68;;;;;;;19.37;61.83;96959.09;5010274;28;20170;-68
2022/07/21 04:44:54;;;;;;;7.28;5.10;;;;;;;19.94;62.24;97022.63;5007502;28;20579;-69
2022/07/21 04:47:21;;;;;;;10.85;5.07;;;;;;;20.19;60.97;97015.28;5010948;28;20050;-69
2022/07/21 04:49:47;;;;;;;9.30;5.07;;;;;;;20.09;61.18;96988.13;5005892;28;20053;-68
2022/07/21 04:52:14;;;;;;;5.13;4.72;;;;;;;20.47;60.04;97030.78;5009792;28;20089;-62
2022/07/21 04:54:41;;;;;;;5.80;4.75;;;;;;;20.53;59.96;97029.03;5010477;28;20053;-68
2022/07/21 04:57:08;;;;;;;9.02;4.85;;;;;;;19.33;59.29;96808.69;5015280;28;20061;-71
2022/07/21 04:59:34;;;;;;;7.80;4.70;;;;;;;20.80;58.96;97049.34;5005996;28;20124;-60
2022/07/21 05:02:03;;;;;;;8.30;4.85;;;;;;;20.85;60.04;97029.06;5011608;28;20058;-63
2022/07/21 05:04:30;;;;;;;6.90;4.55;;;;;;;20.93;58.36;97007.97;5006678;28;20052;-71
2022/07/21 05:06:57;;;;;;;5.35;4.75;;;;;;;21.21;57.25;97015.78;5012196;28;20060;-59
2022/07/21 05:09:24;;;;;;;7.85;5.40;;;;;;;21.39;56.94;97030.19;5004011;28;20472;-70
2022/07/21 05:11:51;;;;;;;8.10;6.53;;;;;;;21.49;56.93;97012.22;5012280;28;20061;-64
2022/07/21 05:14:17;;;;;;;6.53;5.72;;;;;;;21.60;57.01;97007.09;5023684;28;20052;-70
2022/07/21 05:16:44;;;;;;;8.85;5.10;;;;;;;21.42;56.08;96961.66;5014796;28;20153;-71
2022/07/21 05:19:11;;;;;;;7.07;5.25;;;;;;;21.90;57.10;97026.44;5006222;28;20061;-64
2022/07/21 05:21:38;;;;;;;6.75;5.60;;;;;;;21.70;57.16;96960.09;5010375;28;20057;-70
2022/07/21 05:24:05;;;;;;;9.18;6.28;;;;;;;22.43;55.42;97025.69;5004577;28;20057;-62
2022/07/21 05:26:31;;;;;;;11.10;6.55;;;;;;;22.63;55.50;97024.72;5010952;28;20068;-61
2022/07/21 05:28:58;;;;;;;9.25;7.05;;;;;;;22.82;54.60;97020.91;5004315;28;20054;-60
2022/07/21 05:31:25;;;;;;;8.18;5.65;;;;;;;23.01;54.50;97019.91;5010187;28;20057;-69
2022/07/21 05:33:52;;;;;;;6.28;4.97;;;;;;;23.17;53.50;97017.75;5004466;28;20143;-71
2022/07/21 05:36:19;;;;;;;10.13;5.07;;;;;;;22.90;53.20;96935.50;5010484;28;20054;-60
2022/07/21 05:38:46;;;;;;;15.20;6.07;;;;;;;23.39;53.59;97017.84;5004380;28;20505;-69
2022/07/21 05:41:14;;;;;;;7.47;5.22;;;;;;;23.52;51.52;97010.13;5010735;28;20486;-60
2022/07/21 05:43:40;;;;;;;7.63;5.65;;;;;;;23.43;51.08;96947.81;5006124;28;20050;-67
2022/07/21 05:46:07;;;;;;;8.75;6.93;;;;;;;23.96;50.47;96999.69;5007241;28;20183;-61
2022/07/21 05:48:34;;;;;;;13.25;5.20;;;;;;;23.86;50.38;96956.38;5017881;28;20151;-62
2022/07/21 05:51:01;;;;;;;7.20;5.40;;;;;;;24.42;49.62;96996.72;5012830;28;20508;-60
2022/07/21 05:53:28;;;;;;;5.78;4.82;;;;;;;24.67;48.64;97009.97;5024577;28;20089;-70
2022/07/21 05:55:55;;;;;;;9.68;6.10;;;;;;;24.64;48.34;96982.53;5018576;28;20050;-68
2022/07/21 05:58:24;;;;;;;6.15;5.72;;;;;;;24.75;48.13;96935.56;5017217;28;20049;-69
2022/07/21 06:01:11;;;;;;;6.97;5.55;;;;;;;25.39;48.05;96998.16;5009754;28;20056;-63
2022/07/21 06:03:44;;;;;;;6.65;5.55;;;;;;;25.66;47.32;97001.81;5020517;28;20190;-68
2022/07/21 06:06:13;;;;;;;9.27;5.38;;;;;;;25.29;46.07;96904.50;5008014;28;20073;-64
2022/07/21 06:08:41;;;;;;;5.80;5.40;;;;;;;26.24;45.16;97001.72;5005051;28;20402;-64
2022/07/21 06:11:10;;;;;;;5.57;5.18;;;;;;;26.42;44.59;97007.38;5007874;28;20061;-64
2022/07/21 06:13:39;;;;;;;6.53;5.95;;;;;;;26.66;44.83;96999.78;5007330;28;20564;-63
2022/07/21 06:16:07;;;;;;;10.95;6.28;;;;;;;26.89;44.53;96995.44;5010097;28;20068;-66
2022/07/21 06:18:34;;;;;;;6.82;6.07;;;;;;;27.05;43.93;96995.84;5006759;28;20049;-62
2022/07/21 06:21:01;;;;;;;7.72;6.07;;;;;;;26.98;43.01;96947.84;5012411;28;20103;-65
2022/07/21 06:23:28;;;;;;;13.07;9.00;;;;;;;27.54;42.81;96987.69;5007978;28;20053;-70
2022/07/21 06:25:55;;;;;;;7.38;6.68;;;;;;;27.47;42.81;96948.25;5014172;28;20072;-63
2022/07/21 06:28:22;;;;;;;13.00;6.82;;;;;;;27.84;42.56;96980.84;5004653;28;20050;-65
2022/07/21 06:30:50;;;;;;;9.57;6.65;;;;;;;27.94;40.94;96968.16;5009195;28;20065;-60
2022/07/21 06:33:16;;;;;;;14.13;6.75;;;;;;;28.17;40.82;96977.13;5004550;28;20194;-66
2022/07/21 06:35:43;;;;;;;9.68;7.35;;;;;;;27.45;40.16;96821.91;5007451;28;20108;-62
2022/07/21 06:38:10;;;;;;;8.25;6.13;;;;;;;28.59;39.36;96967.06;5010743;28;20152;-61
2022/07/21 06:40:40;;;;;;;6.82;6.32;;;;;;;27.60;38.78;96777.22;5011780;28;20165;-71
2022/07/21 06:43:09;;;;;;;6.75;6.25;;;;;;;28.13;36.67;96854.81;5007580;28;20057;-60
2022/07/21 06:45:55;;;;;;;6.13;5.63;;;;;;;28.68;37.38;96918.50;5010439;28;20049;-60
2022/07/21 06:48:24;;;;;;;6.63;6.22;;;;;;;28.97;35.28;96926.22;5011357;28;20061;-61
2022/07/21 06:50:52;;;;;;;7.30;6.80;;;;;;;29.44;35.94;96963.00;5015125;28;20045;-60
2022/07/21 06:53:19;;;;;;;6.90;6.25;;;;;;;29.42;35.60;96942.72;5021859;28;20060;-66
2022/07/21 06:55:46;;;;;;;6.50;6.18;;;;;;;29.66;33.88;96957.63;5021406;28;20068;-60
2022/07/21 06:58:18;;;;;;;7.00;6.30;;;;;;;29.80;34.55;96956.78;5023233;28;20072;-69
2022/07/21 07:00:47;;;;;;;7.15;6.45;;;;;;;29.51;34.61;96911.22;5022619;28;20068;-61
2022/07/21 07:03:16;;;;;;;6.78;6.25;;;;;;;29.88;34.63;96937.91;5023893;28;20144;-63
2022/07/21 07:05:47;;;;;;;6.88;6.30;;;;;;;30.07;33.67;96947.75;5022505;28;20055;-63
2022/07/21 07:08:15;;;;;;;6.57;6.15;;;;;;;30.02;34.42;96957.03;5023868;28;20053;-68
2022/07/21 07:10:42;;;;;;;7.25;6.57;;;;;;;29.94;34.29;96898.75;5022335;28;20630;-62
2022/07/21 07:13:10;;;;;;;7.18;6.47;;;;;;;30.20;33.99;96911.00;5023599;28;20381;-61
2022/07/21 07:15:57;;;;;;;7.13;6.60;;;;;;;30.31;33.89;96934.03;5022492;28;20668;-59
2022/07/21 07:18:24;;;;;;;7.00;6.50;;;;;;;30.05;34.36;96944.59;5019152;28;20072;-66
2022/07/21 07:20:52;;;;;;;6.97;6.32;;;;;;;30.06;34.21;96945.41;5021229;28;20057;-67
2022/07/21 07:23:19;;;;;;;6.78;6.18;;;;;;;30.38;34.12;96945.00;5022505;28;20145;-66
2022/07/21 07:25:46;;;;;;;6.80;6.40;;;;;;;30.36;34.36;96941.88;5023586;28;20077;-67
2022/07/21 07:28:13;;;;;;;7.55;7.05;;;;;;;29.95;33.86;96880.34;5024085;28;20226;-57
2022/07/21 07:30:39;;;;;;;7.55;7.05;;;;;;;30.37;33.63;96909.13;5023853;28;20052;-60
2022/07/21 07:33:06;;;;;;;6.13;5.80;;;;;;;30.53;33.81;96934.25;5026556;28;20045;-59
2022/07/21 07:35:33;;;;;;;7.70;6.95;;;;;;;30.91;33.12;96942.41;5027401;28;20061;-60
2022/07/21 07:38:01;;;;;;;7.20;6.55;;;;;;;30.97;33.08;96955.97;5024530;28;20481;-61
2022/07/21 07:40:28;;;;;;;7.07;6.35;;;;;;;31.00;33.07;96944.28;5026260;28;20041;-64
2022/07/21 07:42:55;;;;;;;6.70;6.30;;;;;;;30.30;33.34;96938.19;5027179;28;20076;-60
2022/07/21 07:45:21;;;;;;;6.47;6.05;;;;;;;30.05;33.63;96910.31;5025911;28;20159;-60
2022/07/21 07:47:49;;;;;;;14.45;10.10;;;;;;;30.46;33.70;96957.56;5027288;28;20060;-59
2022/07/21 07:50:16;;;;;;;14.77;9.82;;;;;;;30.62;33.51;96948.34;5025633;28;20060;-61
2022/07/21 07:52:44;;;;;;;10.00;9.07;;;;;;;30.43;33.33;96895.66;5025611;28;20133;-60
2022/07/21 07:55:12;;;;;;;7.32;6.80;;;;;;;30.87;33.13;96950.41;5027310;28;20049;-61
2022/07/21 07:57:42;;;;;;;6.55;6.15;;;;;;;31.07;32.95;96948.75;5035405;28;20229;-59
2022/07/21 08:00:12;;;;;;;7.43;6.75;;;;;;;31.04;32.83;96949.78;5046688;28;20110;-65
2022/07/21 08:02:59;;;;;;;6.82;6.43;;;;;;;31.11;33.07;96949.31;5046245;28;20057;-60
2022/07/21 08:05:26;;;;;;;7.35;6.85;;;;;;;30.91;33.01;96959.56;5046663;28;20077;-64
2022/07/21 08:07:53;;;;;;;6.72;6.22;;;;;;;30.71;33.17;96939.59;5046429;28;20057;-58
2022/07/21 08:10:20;;;;;;;7.38;6.88;;;;;;;30.83;33.35;96929.84;5046421;28;20060;-64
2022/07/21 08:13:08;;;;;;;7.78;7.15;;;;;;;31.15;33.54;96932.69;5046400;28;20573;-58
2022/07/21 08:15:37;;;;;;;6.97;6.57;;;;;;;30.79;33.43;96940.72;5045039;28;20049;-60
2022/07/21 08:18:04;;;;;;;7.47;6.97;;;;;;;30.84;33.96;96937.13;5046602;28;20553;-60
2022/07/21 08:20:31;;;;;;;7.43;6.90;;;;;;;31.16;33.52;96937.13;5046414;28;20049;-63
2022/07/21 08:22:58;;;;;;;7.53;7.03;;;;;;;30.81;33.04;96943.09;5044859;28;20553;-59
2022/07/21 08:25:25;;;;;;;7.53;6.93;;;;;;;30.96;33.42;96943.75;5045905;28;20147;-64
2022/07/21 08:27:52;;;;;;;7.68;7.10;;;;;;;30.61;33.45;96861.00;5046124;28;20512;-60
2022/07/21 08:30:19;;;;;;;7.63;7.03;;;;;;;31.04;33.88;96932.59;5045834;28;20156;-65
2022/07/21 08:32:51;;;;;;;6.63;6.22;;;;;;;31.23;33.71;96934.56;5031970;28;20049;-60
2022/07/21 08:35:17;;;;;;;7.65;7.15;;;;;;;31.14;32.99;96896.78;5025495;28;20076;-60
2022/07/21 08:37:55;;;;;;;10.73;7.50;;;;;;;31.46;32.97;96918.34;5025857;28;20067;-59
2022/07/21 08:40:26;;;;;;;7.15;6.75;;;;;;;31.21;33.15;96930.63;5020996;28;20057;-64
2022/07/21 08:42:54;;;;;;;7.10;6.65;;;;;;;31.42;33.08;96912.06;5021843;28;20949;-67
2022/07/21 08:45:22;;;;;;;7.55;7.05;;;;;;;31.52;33.28;96922.03;5024551;28;20064;-65
2022/07/21 08:47:53;;;;;;;7.35;6.57;;;;;;;31.85;32.39;96917.22;5022917;28;20061;-60
2022/07/21 08:50:22;;;;;;;7.03;6.63;;;;;;;31.46;32.19;96901.16;5022701;28;20045;-60
2022/07/21 08:52:50;;;;;;;7.63;6.93;;;;;;;31.55;32.78;96918.88;5026138;28;20522;-61
2022/07/21 08:55:24;;;;;;;7.47;6.88;;;;;;;31.61;33.19;96901.75;5023713;28;20053;-63
2022/07/21 08:57:51;;;;;;;7.60;7.10;;;;;;;31.42;31.78;96855.59;5023424;28;20080;-65
2022/07/21 09:00:18;;;;;;;7.90;7.40;;;;;;;31.73;32.49;96914.81;5022767;28;20764;-63
2022/07/21 09:02:45;;;;;;;7.70;6.90;;;;;;;31.39;32.31;96855.81;5024814;28;20057;-62
2022/07/21 09:05:12;;;;;;;9.40;8.50;;;;;;;31.52;32.08;96870.47;5021388;28;20056;-65
2022/07/21 09:07:50;;;;;;;8.00;7.40;;;;;;;31.78;31.67;96896.88;5026143;28;20049;-65
2022/07/21 09:10:23;;;;;;;7.97;7.47;;;;;;;32.05;31.46;96899.88;5008187;28;20401;-68
2022/07/21 09:12:54;;;;;;;;;;;;;;;32.38;31.16;96896.31;5006449;28;20054;-69
2022/07/21 09:15:23;;;;;;;10.40;8.15;;;;;;;32.49;31.31;96887.72;5005290;28;19983;-64
2022/07/21 09:18:09;;;;;;;7.88;7.32;;;;;;;32.16;31.03;96890.50;5005316;28;20517;-62
2022/07/21 09:20:45;;;;;;;7.18;6.78;;;;;;;31.82;31.26;96883.09;5003851;28;20054;-68
2022/07/21 09:23:15;;;;;;;8.23;7.25;;;;;;;31.81;31.67;96895.81;5020085;28;20058;-65
2022/07/21 09:25:42;;;;;;;8.43;7.65;;;;;;;32.11;31.19;96891.25;5003680;28;20058;-63
2022/07/21 09:28:11;;;;;;;8.60;7.95;;;;;;;32.23;31.21;96884.28;5003969;28;20045;-69
2022/07/21 09:31:03;;;;;;;8.75;8.05;;;;;;;32.20;31.56;96882.44;5005733;28;20227;-69
2022/07/21 09:33:40;;;;;;;14.98;13.48;;;;;;;32.01;31.61;96879.25;5003614;28;20050;-68
2022/07/21 09:36:12;;;;;;;9.30;8.50;;;;;;;32.20;30.64;96885.31;5005751;28;20433;-68
2022/07/21 09:38:58;;;;;;;8.10;7.50;;;;;;;32.28;30.73;96869.13;5004159;28;20049;-68
2022/07/21 09:41:26;;;;;;;7.40;6.90;;;;;;;32.29;30.50;96879.31;5012459;28;20049;-69
2022/07/21 09:43:55;;;;;;;9.35;8.50;;;;;;;32.41;30.45;96860.84;5017815;28;20060;-66
2022/07/21 09:46:26;;;;;;;9.43;7.45;;;;;;;32.29;30.70;96887.91;5010597;28;20053;-60
2022/07/21 09:48:56;;;;;;;7.97;7.45;;;;;;;32.45;30.59;96881.47;5005109;28;20521;-60
2022/07/21 09:51:43;;;;;;;7.40;7.00;;;;;;;32.89;29.74;96878.63;5011983;28;20060;-63
2022/07/21 09:54:12;;;;;;;8.35;7.85;;;;;;;32.32;30.20;96754.97;5022120;28;20527;-66
2022/07/21 09:56:42;;;;;;;7.63;7.03;;;;;;;33.16;29.30;96846.22;5012688;28;20137;-61
2022/07/21 09:59:11;;;;;;;7.50;6.90;;;;;;;33.49;28.77;96886.34;5008198;28;20061;-62
2022/07/21 10:01:38;;;;;;;7.25;6.85;;;;;;;32.61;29.08;96803.22;5006751;28;20056;-62
2022/07/21 10:04:06;;;;;;;8.18;7.53;;;;;;;33.61;28.16;96870.63;5014328;28;20179;-65
2022/07/21 10:06:38;;;;;;;7.38;6.88;;;;;;;33.58;27.50;96877.44;5001082;28;20068;-61
2022/07/21 10:09:07;;;;;;;7.85;7.30;;;;;;;33.46;28.44;96880.88;5011200;28;20103;-60
2022/07/21 10:11:39;;;;;;;7.10;6.65;;;;;;;33.58;28.79;96883.19;5013524;28;20056;-63
2022/07/21 10:14:12;;;;;;;6.88;6.47;;;;;;;32.87;28.30;96765.59;5016621;28;20455;-64
2022/07/21 10:16:39;;;;;;;7.97;7.38;;;;;;;32.91;29.44;96921.16;5016797;28;20088;-62
2022/07/21 10:19:28;;;;;;;8.23;7.53;;;;;;;33.04;29.35;96881.97;5008620;28;20065;-63
2022/07/21 10:22:07;;;;;;;8.68;8.02;;;;;;;33.44;28.77;96872.78;5013462;28;20125;-62
2022/07/21 10:24:35;;;;;;;8.07;7.47;;;;;;;33.25;29.03;96876.72;5016795;28;20045;-67
2022/07/21 10:27:06;;;;;;;8.45;7.65;;;;;;;33.17;29.45;96875.69;5011603;28;20528;-67
2022/07/21 10:29:49;;;;;;;8.55;7.80;;;;;;;32.72;29.89;96857.72;5009979;28;20064;-66
2022/07/21 10:32:26;;;;;;;7.80;7.30;;;;;;;32.68;30.36;96888.75;5010795;28;20060;-62
2022/07/21 10:34:54;;;;;;;8.77;6.90;;;;;;;32.14;29.05;96764.06;5014083;28;20159;-66
2022/07/21 10:37:39;;;;;;;7.55;7.07;;;;;;;32.48;29.47;96866.06;5007563;28;20057;-66
2022/07/21 10:40:26;;;;;;;8.05;7.45;;;;;;;32.59;29.78;96851.72;5012409;28;20053;-69
2022/07/21 10:42:59;;;;;;;8.20;7.38;;;;;;;32.64;28.99;96861.63;5021521;28;20150;-61
2022/07/21 10:45:34;;;;;;;7.78;7.20;;;;;;;32.52;29.65;96837.91;5012709;28;20123;-69
2022/07/21 10:48:04;;;;;;;7.82;7.18;;;;;;;32.11;30.04;96859.72;5017972;28;20049;-68
2022/07/21 10:50:40;;;;;;;8.35;7.70;;;;;;;32.22;30.18;96856.88;5017291;28;20076;-70
2022/07/21 10:53:16;;;;;;;7.80;7.30;;;;;;;32.76;30.32;96849.63;5016380;28;20436;-67
2022/07/21 10:55:48;;;;;;;7.35;6.82;;;;;;;32.86;30.31;96833.72;5015960;28;20057;-68
2022/07/21 10:58:36;;;;;;;7.80;7.20;;;;;;;33.33;30.03;96838.31;5018341;28;20129;-66
2022/07/21 11:01:15;;;;;;;7.97;7.30;;;;;;;33.25;29.14;96836.50;5011687;28;20057;-65
2022/07/21 11:04:09;;;;;;;7.47;6.97;;;;;;;31.46;30.06;96534.59;5013915;28;20080;-64
2022/07/21 11:06:39;;;;;;;8.20;7.70;;;;;;;33.36;29.15;96830.72;5017892;28;20140;-65
2022/07/21 11:09:10;;;;;;;8.05;7.35;;;;;;;33.11;28.98;96826.91;5021416;28;20128;-65
2022/07/21 11:11:47;;;;;;;10.00;7.72;;;;;;;32.96;28.72;96794.81;5018580;28;20049;-66
2022/07/21 11:14:20;;;;;;;7.72;7.32;;;;;;;33.14;28.75;96825.84;5015024;28;20049;-66
2022/07/21 11:19:49;;;;;;;9.40;8.55;;;;;;;33.31;29.51;96771.22;5014262;28;20053;-71
2022/07/21 11:22:24;;;;;;;10.13;9.23;;;;;;;33.41;28.98;96766.75;5016258;28;20057;-66
2022/07/21 11:24:57;;;;;;;10.88;9.93;;;;;;;33.39;29.10;96749.22;5015967;28;20053;-64
2022/07/21 11:27:30;;;;;;;13.07;10.15;;;;;;;33.69;28.69;96790.38;5014928;28;20757;-65
2022/07/21 11:29:59;;;;;;;25.52;15.85;;;;;;;34.44;28.79;96814.78;5014838;28;20058;-62
2022/07/21 11:32:26;;;;;;;8.02;7.57;;;;;;;33.28;28.58;96757.91;5016778;28;20535;-64
2022/07/21 11:34:57;;;;;;;7.05;6.60;;;;;;;33.30;28.87;96819.28;5018337;28;20389;-63
2022/07/21 11:37:28;;;;;;;8.10;7.28;;;;;;;33.09;29.05;96760.59;5017533;28;20050;-69
2022/07/21 11:40:15;;;;;;;9.13;8.30;;;;;;;33.50;29.00;96749.22;5011366;28;20052;-64
2022/07/21 11:42:43;;;;;;;7.47;7.07;;;;;;;34.06;28.35;96818.69;5012297;28;20054;-59
2022/07/21 11:45:12;;;;;;;9.55;8.13;;;;;;;33.67;28.92;96807.41;5018399;28;20467;-60
2022/07/21 11:47:39;;;;;;;10.85;9.75;;;;;;;33.65;29.50;96779.16;5009234;28;20061;-60
2022/07/21 11:50:11;;;;;;;8.07;7.38;;;;;;;33.78;29.59;96805.22;5013777;28;20060;-66